Time;durP1;ratioP1;P1;durP2;ratioP2;P2;SDS_P1;SDS_P2;PMS_P1;PMS_P2;Temp;Humidity;BMP_temperature;BMP_pressure;BME280_temperature;BME280_humidity;BME280_pressure;Samples;Min_cycle;Max_cycle;Signal;HPM_P1;HPM_P2
2022/10/06 00:00:09;;;;;;;8.87;4.63;;;10.70;99.90;;;;;;5054279;28;20197;-63
2022/10/06 00:02:37;;;;;;;6.63;4.53;;;10.70;99.90;;;;;;5054249;28;20188;-64
2022/10/06 00:05:06;;;;;;;6.10;4.80;;;10.70;99.90;;;;;;5054173;28;20594;-64
2022/10/06 00:07:36;;;;;;;6.57;4.20;;;10.60;99.90;;;;;;5054182;28;20192;-63
2022/10/06 00:10:06;;;;;;;5.60;4.40;;;10.70;99.90;;;;;;5053240;28;20226;-64
2022/10/06 00:12:40;;;;;;;4.93;3.97;;;10.60;99.90;;;;;;5054212;28;20357;-64
2022/10/06 00:15:12;;;;;;;8.43;3.80;;;10.60;99.90;;;;;;5053941;28;20231;-63
2022/10/06 00:17:41;;;;;;;7.53;4.40;;;10.60;99.90;;;;;;5054091;28;20184;-63
2022/10/06 00:20:11;;;;;;;7.87;4.40;;;10.60;99.90;;;;;;5053980;28;20195;-63
2022/10/06 00:22:42;;;;;;;9.10;4.70;;;10.50;99.90;;;;;;5053965;28;20192;-64
2022/10/06 00:25:14;;;;;;;9.00;3.90;;;10.60;99.90;;;;;;5053986;28;20216;-63
2022/10/06 00:27:46;;;;;;;8.37;4.40;;;10.60;99.90;;;;;;5054318;28;20191;-63
2022/10/06 00:30:19;;;;;;;6.13;4.27;;;10.50;99.90;;;;;;5036100;28;20198;-64
2022/10/06 00:32:52;;;;;;;7.13;4.60;;;10.50;99.90;;;;;;5053659;28;20188;-64
2022/10/06 00:35:21;;;;;;;8.40;4.43;;;10.60;99.90;;;;;;5053665;28;20592;-64
2022/10/06 00:37:50;;;;;;;6.17;4.67;;;10.60;99.90;;;;;;5053584;28;20199;-65
2022/10/06 00:40:19;;;;;;;5.37;3.93;;;10.60;99.90;;;;;;5035814;28;20184;-65
2022/10/06 00:42:54;;;;;;;5.13;3.47;;;10.60;99.90;;;;;;5053471;28;20199;-64
2022/10/06 00:45:29;;;;;;;6.47;3.90;;;10.50;99.90;;;;;;5035672;28;20230;-64
2022/10/06 00:48:03;;;;;;;4.87;3.73;;;10.50;99.90;;;;;;5052438;28;20196;-62
2022/10/06 00:50:31;;;;;;;6.10;4.13;;;10.50;99.90;;;;;;5035694;28;20183;-64
2022/10/06 00:53:01;;;;;;;7.10;5.13;;;10.50;99.90;;;;;;5035498;28;20200;-65
2022/10/06 00:55:29;;;;;;;7.00;4.40;;;10.50;99.90;;;;;;5053109;28;20230;-64
2022/10/06 00:58:01;;;;;;;5.90;4.10;;;10.40;99.90;;;;;;5053142;28;20200;-64
2022/10/06 01:00:29;;;;;;;5.67;4.10;;;10.40;99.90;;;;;;5053197;28;20667;-64
2022/10/06 01:03:04;;;;;;;5.63;3.33;;;10.40;99.90;;;;;;5035025;28;20196;-65
2022/10/06 01:05:39;;;;;;;7.57;4.67;;;10.40;99.90;;;;;;5034832;28;20683;-65
2022/10/06 01:08:08;;;;;;;22.20;12.63;;;10.40;99.90;;;;;;5053090;28;20184;-64
2022/10/06 01:10:37;;;;;;;16.83;10.27;;;10.40;99.90;;;;;;5035234;28;20196;-64
2022/10/06 01:13:09;;;;;;;15.30;8.83;;;10.40;99.90;;;;;;5035221;28;20200;-64
2022/10/06 01:15:43;;;;;;;10.00;6.63;;;10.40;99.90;;;;;;5035050;28;20219;-64
2022/10/06 01:18:15;;;;;;;11.17;6.60;;;10.40;99.90;;;;;;5052944;28;20199;-66
2022/10/06 01:20:50;;;;;;;13.67;6.70;;;10.40;99.90;;;;;;5052304;28;20200;-65
2022/10/06 01:23:21;;;;;;;10.87;6.37;;;10.40;99.90;;;;;;5051982;28;20207;-65
2022/10/06 01:25:50;;;;;;;13.70;7.83;;;10.30;99.90;;;;;;5042373;28;20599;-65
2022/10/06 01:28:19;;;;;;;95.20;44.80;;;10.30;99.90;;;;;;5032657;28;20200;-65
2022/10/06 01:30:52;;;;;;;206.20;93.80;;;10.30;99.90;;;;;;5015068;28;20188;-65
2022/10/06 01:33:23;;;;;;;230.60;105.50;;;10.30;99.90;;;;;;5031674;28;20188;-64
2022/10/06 01:35:53;;;;;;;149.03;69.17;;;10.30;99.90;;;;;;5031409;28;20220;-65
2022/10/06 01:38:25;;;;;;;138.13;62.83;;;10.30;99.90;;;;;;5030982;28;20211;-64
2022/10/06 01:40:59;;;;;;;108.53;50.00;;;10.30;99.90;;;;;;5031490;28;20191;-64
2022/10/06 01:43:28;;;;;;;59.83;31.93;;;10.30;99.90;;;;;;5032475;28;20196;-65
2022/10/06 01:46:00;;;;;;;24.17;14.97;;;10.30;99.90;;;;;;5031212;28;20235;-65
2022/10/06 01:48:29;;;;;;;16.30;10.50;;;10.30;99.90;;;;;;5031415;28;20192;-64
2022/10/06 01:50:59;;;;;;;14.20;9.03;;;10.40;99.90;;;;;;5031291;28;20176;-64
2022/10/06 01:53:29;;;;;;;13.37;7.87;;;10.30;99.90;;;;;;5031127;28;20201;-64
2022/10/06 01:55:59;;;;;;;7.67;5.23;;;10.30;99.90;;;;;;5030708;28;20220;-64
2022/10/06 01:58:30;;;;;;;8.47;5.07;;;10.30;99.90;;;;;;5031271;28;20193;-64
2022/10/06 02:01:05;;;;;;;8.27;4.40;;;10.40;99.90;;;;;;4998442;28;20197;-64
2022/10/06 02:03:36;;;;;;;6.47;3.83;;;10.40;99.90;;;;;;5014829;28;20299;-63
2022/10/06 02:06:05;;;;;;;5.07;3.27;;;10.40;99.90;;;;;;5032158;28;20592;-64
2022/10/06 02:08:36;;;;;;;7.33;4.23;;;10.40;99.90;;;;;;5031119;28;20188;-64
2022/10/06 02:11:08;;;;;;;9.53;5.33;;;10.50;99.90;;;;;;5014716;28;20191;-64
2022/10/06 02:13:41;;;;;;;7.60;4.97;;;10.50;99.90;;;;;;5032309;28;20188;-65
2022/10/06 02:16:12;;;;;;;10.30;6.30;;;10.60;99.90;;;;;;5032092;28;20699;-65
2022/10/06 02:18:42;;;;;;;16.40;9.20;;;10.50;99.90;;;;;;5031087;28;20563;-64
2022/10/06 02:21:15;;;;;;;19.00;9.20;;;10.60;99.90;;;;;;5030049;28;20208;-65
2022/10/06 02:23:46;;;;;;;11.87;6.33;;;10.60;99.90;;;;;;5014738;28;20187;-65
2022/10/06 02:26:16;;;;;;;11.10;6.60;;;10.60;99.90;;;;;;5030890;28;20231;-65
2022/10/06 02:28:48;;;;;;;13.97;7.20;;;10.70;99.90;;;;;;5032343;28;20205;-75
2022/10/06 02:31:21;;;;;;;11.87;6.20;;;10.70;99.90;;;;;;5014119;28;20210;-64
2022/10/06 02:33:50;;;;;;;12.47;5.73;;;10.70;99.90;;;;;;5014479;28;20200;-65
2022/10/06 02:36:21;;;;;;;10.57;5.57;;;10.70;99.90;;;;;;5014275;28;20227;-64
2022/10/06 02:38:55;;;;;;;9.93;5.80;;;10.70;99.90;;;;;;5014421;28;20204;-64
2022/10/06 02:41:24;;;;;;;11.30;5.90;;;10.70;99.90;;;;;;5014529;28;20248;-70
2022/10/06 02:43:54;;;;;;;8.63;4.63;;;10.70;99.90;;;;;;5032238;28;20656;-64
2022/10/06 02:46:23;;;;;;;7.73;5.53;;;10.70;99.90;;;;;;5030571;28;20236;-67
2022/10/06 02:48:53;;;;;;;6.30;4.17;;;10.70;99.90;;;;;;5030847;28;20657;-67
2022/10/06 02:51:22;;;;;;;7.20;3.33;;;10.80;99.90;;;;;;5030762;28;20196;-67
2022/10/06 02:53:52;;;;;;;3.37;2.70;;;11.00;99.90;;;;;;5014336;28;20656;-67
2022/10/06 02:56:24;;;;;;;6.77;3.17;;;11.00;99.90;;;;;;5031724;28;20680;-66
2022/10/06 02:58:54;;;;;;;8.70;3.33;;;11.00;99.90;;;;;;5031903;28;20529;-67
2022/10/06 03:01:32;;;;;;;7.23;4.00;;;11.00;99.90;;;;;;5014239;28;20645;-67
2022/10/06 03:04:10;;;;;;;5.20;3.00;;;11.10;99.90;;;;;;5031818;28;20564;-66
2022/10/06 03:06:41;;;;;;;7.33;3.63;;;11.10;99.90;;;;;;5014168;28;20213;-67
2022/10/06 03:09:15;;;;;;;7.23;5.30;;;11.20;99.90;;;;;;5033950;28;20561;-66
2022/10/06 03:11:46;;;;;;;5.53;3.13;;;11.20;99.90;;;;;;5034213;28;20193;-67
2022/10/06 03:14:25;;;;;;;8.33;3.83;;;11.10;99.90;;;;;;5034095;28;20192;-66
2022/10/06 03:16:55;;;;;;;10.80;5.40;;;11.10;99.90;;;;;;5035095;28;20235;-67
2022/10/06 03:19:27;;;;;;;9.47;4.43;;;11.10;99.90;;;;;;5034037;28;20192;-67
2022/10/06 03:21:56;;;;;;;8.93;4.83;;;11.00;99.90;;;;;;5033941;28;20570;-66
2022/10/06 03:24:33;;;;;;;6.47;3.63;;;11.00;99.90;;;;;;5033950;28;20176;-67
2022/10/06 03:27:03;;;;;;;8.80;3.37;;;10.90;99.90;;;;;;5033901;28;20196;-66
2022/10/06 03:29:32;;;;;;;6.60;4.60;;;10.90;99.90;;;;;;5035032;28;20196;-66
2022/10/06 03:32:02;;;;;;;6.67;3.57;;;10.90;99.90;;;;;;5033847;28;20193;-66
2022/10/06 03:34:30;;;;;;;7.70;3.33;;;10.90;99.90;;;;;;5033802;28;20193;-66
2022/10/06 03:37:02;;;;;;;8.90;6.43;;;10.90;99.90;;;;;;5033677;28;20208;-67
2022/10/06 03:39:32;;;;;;;3.77;3.13;;;10.90;99.90;;;;;;5033059;28;20234;-67
2022/10/06 03:42:02;;;;;;;7.13;3.57;;;10.90;99.90;;;;;;5017189;28;20184;-67
2022/10/06 03:44:33;;;;;;;6.80;3.10;;;10.90;99.90;;;;;;5034791;28;20188;-67
2022/10/06 03:47:03;;;;;;;6.30;3.20;;;11.00;99.90;;;;;;5017154;28;20188;-68
2022/10/06 03:49:33;;;;;;;5.10;3.37;;;11.00;99.90;;;;;;5033538;28;20205;-68
2022/10/06 03:52:01;;;;;;;7.50;2.80;;;11.00;99.90;;;;;;5033413;28;20207;-68
2022/10/06 03:54:35;;;;;;;5.73;3.00;;;11.00;99.90;;;;;;5033438;28;20185;-67
2022/10/06 03:57:05;;;;;;;6.63;3.37;;;11.10;99.90;;;;;;5033284;28;20184;-67
2022/10/06 03:59:33;;;;;;;3.70;3.30;;;11.10;99.90;;;;;;5033292;28;20192;-66
2022/10/06 04:02:05;;;;;;;3.97;3.33;;;11.10;99.90;;;;;;5033395;28;20838;-67
2022/10/06 04:04:38;;;;;;;7.87;3.90;;;11.10;99.90;;;;;;5034265;28;20193;-67
2022/10/06 04:07:09;;;;;;;13.43;6.37;;;11.20;99.90;;;;;;5065746;22;20234;-69
2022/10/06 04:09:39;;;;;;;14.13;6.83;;;11.10;99.90;;;;;;5056364;28;20190;-70
2022/10/06 04:12:11;;;;;;;16.77;7.97;;;11.10;99.90;;;;;;5056272;28;20188;-71
2022/10/06 04:14:41;;;;;;;9.97;5.93;;;11.20;99.90;;;;;;5056200;28;20191;-68
2022/10/06 04:17:11;;;;;;;13.03;6.13;;;11.20;99.90;;;;;;5056130;28;20202;-69
2022/10/06 04:19:41;;;;;;;9.33;5.20;;;11.20;99.90;;;;;;5055850;28;20214;-70
2022/10/06 04:22:09;;;;;;;6.67;4.40;;;11.20;99.90;;;;;;5073946;28;20203;-68
2022/10/06 04:24:38;;;;;;;9.30;5.10;;;11.20;99.90;;;;;;5055958;28;20198;-69
2022/10/06 04:30:00;;;;;;;7.40;4.90;;;11.20;99.90;;;;;;5055913;28;20206;-70
2022/10/06 04:32:31;;;;;;;6.90;4.27;;;11.20;99.90;;;;;;5056024;28;20553;-69
2022/10/06 04:34:59;;;;;;;7.10;4.17;;;11.20;99.90;;;;;;5055724;28;20585;-69
2022/10/06 04:37:28;;;;;;;8.23;4.15;;;11.20;99.90;;;;;;5055686;28;20200;-69
2022/10/06 04:39:58;;;;;;;7.70;5.38;;;11.20;99.90;;;;;;5055786;28;20194;-68
2022/10/06 04:42:28;;;;;;;7.45;5.15;;;11.30;99.90;;;;;;5055695;28;20565;-68
2022/10/06 04:45:06;;;;;;;8.43;4.53;;;11.20;99.90;;;;;;5055231;28;20226;-68
2022/10/06 04:47:35;;;;;;;8.07;4.03;;;11.20;99.90;;;;;;5055756;28;20666;-68
2022/10/06 04:50:05;;;;;;;8.60;4.97;;;11.30;99.90;;;;;;5055637;28;20643;-68
2022/10/06 04:52:33;;;;;;;9.10;4.50;;;11.30;99.90;;;;;;5073412;28;20191;-67
2022/10/06 04:55:03;;;;;;;12.17;9.17;;;11.30;99.90;;;;;;5055309;28;20214;-67
2022/10/06 04:57:31;;;;;;;10.30;6.20;;;11.20;99.90;;;;;;5055495;28;20202;-67
2022/10/06 05:02:49;;;;;;;11.60;7.50;;;11.30;99.90;;;;;;5055860;28;20199;-68
2022/10/06 05:05:17;;;;;;;12.37;6.83;;;11.20;99.90;;;;;;5054478;28;20225;-69
2022/10/06 05:07:47;;;;;;;8.68;6.50;;;11.20;99.90;;;;;;5072883;28;20191;-69
2022/10/06 05:10:16;;;;;;;8.80;5.57;;;11.30;99.90;;;;;;5072946;28;20685;-70
2022/10/06 05:12:45;;;;;;;8.77;5.32;;;11.30;99.90;;;;;;5055209;28;20206;-68
2022/10/06 05:15:14;;;;;;;15.43;9.10;;;11.30;99.90;;;;;;5055062;28;20217;-67
2022/10/06 05:17:43;;;;;;;11.00;7.17;;;11.30;99.90;;;;;;5055062;28;20207;-69
2022/10/06 05:20:13;;;;;;;10.18;6.10;;;11.40;99.90;;;;;;5054976;28;20230;-68
2022/10/06 05:22:42;;;;;;;10.50;4.57;;;11.40;99.90;;;;;;5055045;28;20194;-68
2022/10/06 05:25:11;;;;;;;5.17;4.07;;;11.50;99.90;;;;;;5054872;28;20214;-67
2022/10/06 05:27:40;;;;;;;7.27;4.53;;;11.40;99.90;;;;;;5072658;28;20206;-68
2022/10/06 05:30:10;;;;;;;9.27;5.07;;;11.40;99.90;;;;;;5071971;28;20203;-68
2022/10/06 05:32:39;;;;;;;11.07;6.70;;;11.50;99.90;;;;;;5054804;28;20183;-68
2022/10/06 05:35:08;;;;;;;8.27;5.10;;;11.50;99.90;;;;;;5054692;28;20552;-68
2022/10/06 05:37:38;;;;;;;9.20;5.60;;;11.50;99.90;;;;;;5054788;28;20195;-68
2022/10/06 05:40:12;;;;;;;26.80;17.75;;;11.50;99.90;;;;;;5055328;28;20229;-68
2022/10/06 05:42:41;;;;;;;67.93;44.83;;;11.60;99.90;;;;;;5072530;28;20661;-68
2022/10/06 05:45:11;;;;;;;34.60;23.20;;;11.50;99.90;;;;;;5072406;28;20211;-68
2022/10/06 05:47:41;;;;;;;41.33;23.90;;;11.50;99.90;;;;;;5054502;28;20199;-69
2022/10/06 05:50:10;;;;;;;30.88;21.75;;;11.50;99.90;;;;;;5054931;28;20219;-69
2022/10/06 05:52:41;;;;;;;16.27;10.38;;;11.60;99.90;;;;;;5054540;28;20539;-68
2022/10/06 05:55:10;;;;;;;19.35;11.88;;;11.60;99.90;;;;;;5072265;28;20211;-68
2022/10/06 05:57:39;;;;;;;19.97;12.13;;;11.60;99.90;;;;;;5053511;28;20199;-69
2022/10/06 06:00:09;;;;;;;28.30;19.10;;;11.60;99.90;;;;;;5054485;28;20218;-69
2022/10/06 06:02:40;;;;;;;24.60;16.30;;;11.60;99.90;;;;;;5072320;28;20639;-68
2022/10/06 06:05:11;;;;;;;21.80;14.97;;;11.60;99.90;;;;;;5054337;28;20203;-69
2022/10/06 06:07:42;;;;;;;27.77;19.37;;;11.60;99.90;;;;;;5054246;28;20195;-69
2022/10/06 06:10:10;;;;;;;25.25;16.80;;;11.60;99.90;;;;;;5053344;28;20206;-68
2022/10/06 06:12:39;;;;;;;20.90;13.85;;;11.70;99.90;;;;;;5054394;28;20190;-70
2022/10/06 06:18:12;;;;;;;11.50;6.35;;;11.80;99.90;;;;;;5054893;28;20195;-70
2022/10/06 06:20:41;;;;;;;12.40;8.53;;;11.80;99.90;;;;;;5054392;28;20219;-69
2022/10/06 06:23:11;;;;;;;11.27;7.47;;;11.80;99.90;;;;;;5054257;28;20191;-70
2022/10/06 06:25:41;;;;;;;8.65;6.47;;;11.80;99.90;;;;;;5054190;28;20218;-70
2022/10/06 06:28:10;;;;;;;10.20;6.65;;;11.90;99.90;;;;;;5054164;28;20199;-68
2022/10/06 06:30:39;;;;;;;10.07;6.05;;;11.90;99.90;;;;;;5072015;28;20199;-70
2022/10/06 06:33:07;;;;;;;12.02;8.60;;;11.90;99.90;;;;;;5054091;28;20239;-70
2022/10/06 06:35:36;;;;;;;10.75;7.57;;;12.00;99.90;;;;;;5071915;28;20211;-69
2022/10/06 06:38:10;;;;;;;12.65;8.60;;;12.00;99.90;;;;;;5054067;28;20187;-69
2022/10/06 06:40:41;;;;;;;14.50;9.48;;;12.00;99.90;;;;;;5054101;28;20209;-69
2022/10/06 06:43:12;;;;;;;11.50;9.18;;;12.00;99.90;;;;;;5057519;28;20179;-69
2022/10/06 06:46:02;;;;;;;9.45;6.80;;;12.00;99.90;;;;;;5057863;28;20226;-69
2022/10/06 06:48:48;;;;;;;7.93;6.03;;;12.10;99.90;;;;;;5057881;28;20192;-69
2022/10/06 06:51:20;;;;;;;8.60;5.68;;;12.10;99.90;;;;;;5057763;28;20218;-69
2022/10/06 06:53:48;;;;;;;9.30;5.80;;;12.20;99.90;;;;;;5057789;28;20183;-70
2022/10/06 06:56:20;;;;;;;9.98;5.50;;;12.40;99.90;;;;;;5057677;28;20215;-69
2022/10/06 06:58:49;;;;;;;6.32;4.93;;;12.50;99.90;;;;;;5057728;28;20636;-68
2022/10/06 07:01:19;;;;;;;7.32;4.38;;;12.60;99.90;;;;;;5057491;28;20227;-69
2022/10/06 07:03:53;;;;;;;6.47;4.20;;;12.60;99.90;;;;;;5056965;28;20199;-69
2022/10/06 07:06:31;;;;;;;9.98;3.97;;;12.70;99.90;;;;;;5057480;28;20203;-69
2022/10/06 07:09:02;;;;;;;7.45;3.92;;;12.80;99.90;;;;;;5057515;28;20199;-70
2022/10/06 07:11:34;;;;;;;9.07;4.45;;;12.90;99.90;;;;;;5057336;28;20202;-70
2022/10/06 07:14:08;;;;;;;7.43;5.03;;;13.00;99.90;;;;;;5057408;28;20206;-70
2022/10/06 07:25:11;;;;;;;7.72;3.28;;;13.10;99.90;;;;;;5057188;28;20211;-70
2022/10/06 07:27:46;;;;;;;5.15;2.80;;;13.20;99.90;;;;;;5057082;28;20190;-70
2022/10/06 07:30:20;;;;;;;5.22;3.22;;;13.20;99.90;;;;;;5057122;28;20528;-70
2022/10/06 07:32:54;;;;;;;7.25;2.55;;;13.20;99.90;;;;;;5057108;28;20551;-69
2022/10/06 07:35:25;;;;;;;5.72;3.17;;;13.20;99.90;;;;;;5057174;28;20575;-71
2022/10/06 07:37:54;;;;;;;6.82;3.45;;;13.20;99.90;;;;;;5074835;28;20651;-69
2022/10/06 07:40:25;;;;;;;5.43;2.20;;;13.20;99.90;;;;;;5074750;28;20218;-70
2022/10/06 07:42:55;;;;;;;4.30;1.80;;;13.20;99.90;;;;;;5056971;28;20198;-70
2022/10/06 07:45:40;;;;;;;4.00;1.45;;;13.20;99.90;;;;;;5056746;28;20211;-69
2022/10/06 07:48:24;;;;;;;5.72;1.83;;;13.20;99.90;;;;;;5056950;28;20179;-70
2022/10/06 07:51:00;;;;;;;4.53;1.80;;;13.20;99.90;;;;;;5056712;28;20183;-71
2022/10/06 07:53:34;;;;;;;6.90;1.88;;;13.20;99.90;;;;;;5056028;28;20186;-69
2022/10/06 07:56:14;;;;;;;3.20;1.60;;;13.10;99.90;;;;;;5056620;28;20709;-70
2022/10/06 07:58:50;;;;;;;2.00;1.30;;;13.10;99.90;;;;;;5056613;28;20538;-70
2022/10/06 08:01:20;;;;;;;4.22;1.35;;;13.10;99.90;;;;;;5074359;28;20219;-70
2022/10/06 08:03:49;;;;;;;3.25;1.15;;;13.10;99.90;;;;;;5074308;28;20191;-71
2022/10/06 08:06:18;;;;;;;2.75;1.35;;;13.10;99.90;;;;;;5074180;28;20215;-69
2022/10/06 08:08:48;;;;;;;3.97;1.23;;;13.10;99.90;;;;;;5073384;28;20592;-70
2022/10/06 08:11:21;;;;;;;4.63;1.48;;;13.00;99.90;;;;;;5074208;28;20183;-69
2022/10/06 08:13:51;;;;;;;5.10;1.75;;;13.00;99.90;;;;;;5074137;28;20203;-70
2022/10/06 08:16:22;;;;;;;2.97;1.40;;;13.00;99.90;;;;;;5073126;28;20588;-71
